createdAt,value
2022-11-04T00:03:03.814Z,1.23
2022-11-04T00:08:25.272Z,1.10
2022-11-04T00:13:31.207Z,1.00
2022-11-04T00:18:36.355Z,1.10
2022-11-04T00:23:56.634Z,1.10
2022-11-04T00:29:00.946Z,1.10
2022-11-04T00:34:03.951Z,0.90
2022-11-04T00:39:06.969Z,0.80
2022-11-04T00:44:11.256Z,1.07
2022-11-04T00:49:14.262Z,1.00
2022-11-04T00:54:17.318Z,0.90
2022-11-04T00:59:22.380Z,0.80
2022-11-04T01:04:25.434Z,1.00
2022-11-04T01:09:28.631Z,0.60
2022-11-04T01:14:33.075Z,0.70
2022-11-04T01:19:36.211Z,0.40
2022-11-04T01:24:39.167Z,0.80
2022-11-04T01:29:43.514Z,0.70
2022-11-04T01:34:47.917Z,0.90
2022-11-04T01:39:51.004Z,0.83
2022-11-04T01:44:58.195Z,0.60
2022-11-04T01:50:08.331Z,0.50
2022-11-04T01:55:15.178Z,0.57
2022-11-04T02:00:20.292Z,0.40
2022-11-04T02:05:24.127Z,0.57
2022-11-04T02:10:29.033Z,0.50
2022-11-04T02:15:42.077Z,0.50
2022-11-04T02:21:10.603Z,0.40
2022-11-04T02:26:38.747Z,0.60
2022-11-04T02:31:51.667Z,0.50
2022-11-04T02:37:06.548Z,0.50
2022-11-04T02:42:13.859Z,0.60
2022-11-04T02:47:23.029Z,0.77
2022-11-04T02:52:34.336Z,0.70
2022-11-04T02:57:41.310Z,0.63
2022-11-04T03:02:50.181Z,0.63
2022-11-04T03:07:57.708Z,0.50
2022-11-04T03:13:05.696Z,0.50
2022-11-04T03:18:19.833Z,0.70
2022-11-04T03:23:23.134Z,0.60
2022-11-04T03:28:35.251Z,0.50
2022-11-04T03:33:44.755Z,0.63
2022-11-04T03:38:48.145Z,0.60
2022-11-04T03:43:51.274Z,0.67
2022-11-04T03:48:57.215Z,0.50
2022-11-04T03:54:00.609Z,0.40
2022-11-04T03:59:17.322Z,0.50
2022-11-04T04:04:29.147Z,0.73
2022-11-04T04:09:38.370Z,0.60
2022-11-04T04:14:44.305Z,0.80
2022-11-04T04:19:53.696Z,0.37
2022-11-04T04:25:16.985Z,0.67
2022-11-04T04:30:20.134Z,0.50
2022-11-04T04:35:43.511Z,0.60
2022-11-04T04:41:11.387Z,0.50
2022-11-04T04:46:14.891Z,0.40
2022-11-04T04:51:19.458Z,0.47
2022-11-04T04:56:22.423Z,0.37
2022-11-04T05:01:25.773Z,0.60
2022-11-04T05:06:30.113Z,0.80
2022-11-04T05:11:33.412Z,0.70
2022-11-04T05:16:40.612Z,0.40
2022-11-04T05:21:45.333Z,0.50
2022-11-04T05:26:48.260Z,0.70
2022-11-04T05:31:51.273Z,0.70
2022-11-04T05:36:55.636Z,0.77
2022-11-04T05:41:58.806Z,0.47
2022-11-04T05:47:01.830Z,0.70
2022-11-04T05:52:06.753Z,0.40
2022-11-04T05:57:11.392Z,0.50
2022-11-04T06:02:14.665Z,1.30
2022-11-04T06:07:19.017Z,1.60
2022-11-04T06:12:22.195Z,1.00
2022-11-04T06:17:25.263Z,0.60
2022-11-04T06:22:29.644Z,0.70
2022-11-04T06:27:32.630Z,0.90
2022-11-04T06:32:35.572Z,0.60
2022-11-04T06:37:40.117Z,0.50
2022-11-04T06:42:44.927Z,0.40
2022-11-04T06:47:47.914Z,0.30
2022-11-04T06:52:52.284Z,0.70
2022-11-04T06:57:55.243Z,0.43
2022-11-04T07:02:58.345Z,0.40
2022-11-04T07:08:02.787Z,0.53
2022-11-04T07:13:05.779Z,0.50
2022-11-04T07:18:09.127Z,0.70
2022-11-04T07:23:13.755Z,0.80
2022-11-04T07:28:17.227Z,0.60
2022-11-04T07:33:20.243Z,0.50
2022-11-04T07:38:24.698Z,0.40
2022-11-04T07:43:27.959Z,0.70
2022-11-04T07:48:31.282Z,0.80
2022-11-04T07:53:35.705Z,0.80
2022-11-04T07:58:39.129Z,0.60
2022-11-04T08:03:42.167Z,0.40
2022-11-04T08:08:48.199Z,0.50
2022-11-04T08:13:51.679Z,0.50
2022-11-04T08:18:55.251Z,0.60
2022-11-04T08:23:59.699Z,0.80
2022-11-04T08:29:03.525Z,0.97
2022-11-04T08:34:08.476Z,0.73
2022-11-04T08:39:14.117Z,0.67
2022-11-04T08:44:17.407Z,0.60
2022-11-04T08:49:21.524Z,0.80
2022-11-04T08:54:26.760Z,0.60
2022-11-04T08:59:29.834Z,1.23
2022-11-04T09:04:32.953Z,1.00
2022-11-04T09:09:39.434Z,0.80
2022-11-04T09:14:42.519Z,0.93
2022-11-04T09:19:45.674Z,0.90
2022-11-04T09:24:50.335Z,0.90
2022-11-04T09:29:53.621Z,1.07
2022-11-04T09:34:56.720Z,0.77
2022-11-04T09:40:01.126Z,1.00
2022-11-04T09:45:26.270Z,1.03
2022-11-04T09:50:33.047Z,0.70
2022-11-04T09:55:46.190Z,0.90
2022-11-04T10:00:58.356Z,0.90
2022-11-04T10:06:14.359Z,0.80
2022-11-04T10:11:25.569Z,0.60
2022-11-04T10:16:43.632Z,1.20
2022-11-04T10:21:57.826Z,0.70
2022-11-04T10:27:05.635Z,0.97
2022-11-04T10:32:21.060Z,0.83
2022-11-04T10:37:27.126Z,1.00
2022-11-04T10:42:31.614Z,1.10
2022-11-04T10:47:43.884Z,0.97
2022-11-04T10:52:46.993Z,0.73
2022-11-04T10:57:51.505Z,0.80
2022-11-04T11:02:54.574Z,0.67
2022-11-04T11:07:59.058Z,0.60
2022-11-04T11:13:07.044Z,0.80
2022-11-04T11:18:15.734Z,0.73
2022-11-04T11:23:39.171Z,0.97
2022-11-04T11:28:54.509Z,0.77
2022-11-04T11:34:05.771Z,0.80
2022-11-04T11:39:17.415Z,0.70
2022-11-04T11:44:28.624Z,0.60
2022-11-04T11:49:34.387Z,0.97
2022-11-04T11:54:39.116Z,0.97
2022-11-04T12:10:51.718Z,0.73
2022-11-04T12:16:10.447Z,0.70
2022-11-04T12:21:19.139Z,0.70
2022-11-04T12:26:31.730Z,0.70
2022-11-04T12:31:44.460Z,0.67
2022-11-04T12:37:01.066Z,0.77
2022-11-04T12:42:22.942Z,0.87
2022-11-04T12:47:37.406Z,0.63
2022-11-04T12:53:00.902Z,0.80
2022-11-04T12:58:14.815Z,0.80
2022-11-04T13:03:25.134Z,0.67
2022-11-04T13:08:34.131Z,0.80
2022-11-04T13:13:40.471Z,0.90
2022-11-04T13:18:45.752Z,0.90
2022-11-04T13:23:53.923Z,0.80
2022-11-04T13:29:08.640Z,0.73
2022-11-04T13:34:23.558Z,0.77
2022-11-04T13:39:34.060Z,1.00
2022-11-04T13:44:39.521Z,0.83
2022-11-04T13:49:50.368Z,0.67
2022-11-04T13:54:57.167Z,0.67
2022-11-04T14:00:23.691Z,0.80
2022-11-04T14:06:08.684Z,0.60
2022-11-04T14:11:13.745Z,0.43
2022-11-04T14:16:41.946Z,0.30
2022-11-04T14:22:08.118Z,0.50
2022-11-04T14:27:25.712Z,0.43
2022-11-04T14:32:34.408Z,0.20
2022-11-04T14:37:39.090Z,0.50
2022-11-04T14:42:50.786Z,0.33
2022-11-04T14:47:57.583Z,0.40
2022-11-04T14:53:05.180Z,0.60
2022-11-04T14:58:24.265Z,0.53
2022-11-04T15:08:55.822Z,0.50
2022-11-04T15:14:16.117Z,0.70
2022-11-04T15:19:27.803Z,0.70
2022-11-04T15:24:32.650Z,0.70
2022-11-04T15:29:35.691Z,0.80
2022-11-04T15:34:38.849Z,0.87
2022-11-04T15:39:46.013Z,0.77
2022-11-04T15:44:52.206Z,0.53
2022-11-04T15:50:04.180Z,0.50
2022-11-04T15:55:22.278Z,0.40
2022-11-04T16:00:26.463Z,0.27
2022-11-04T16:05:33.145Z,0.30
2022-11-04T16:10:39.502Z,0.20
2022-11-04T16:15:45.398Z,0.30
2022-11-04T16:20:50.438Z,0.60
2022-11-04T16:25:59.318Z,0.70
2022-11-04T16:31:04.442Z,0.90
2022-11-04T16:36:13.277Z,1.00
2022-11-04T16:41:17.553Z,1.80
2022-11-04T16:46:21.814Z,2.27
2022-11-04T16:51:26.458Z,1.93
2022-11-04T16:56:30.842Z,1.20
2022-11-04T17:01:33.903Z,0.80
2022-11-04T17:06:40.360Z,0.80
2022-11-04T17:11:44.615Z,0.70
2022-11-04T17:16:47.521Z,0.57
2022-11-04T17:21:50.516Z,0.70
2022-11-04T17:26:54.850Z,0.83
2022-11-04T17:31:57.915Z,1.20
2022-11-04T17:37:01.173Z,1.13
2022-11-04T17:42:22.782Z,1.23
2022-11-04T17:47:26.289Z,1.10
2022-11-04T17:52:29.259Z,1.03
2022-11-04T17:57:34.741Z,0.70
2022-11-04T18:02:38.559Z,0.80
2022-11-04T18:07:42.179Z,0.37
2022-11-04T18:12:46.489Z,0.70
2022-11-04T18:17:50.744Z,1.10
2022-11-04T18:22:53.774Z,0.73
2022-11-04T18:27:58.070Z,0.70
2022-11-04T18:33:01.059Z,0.70
2022-11-04T18:38:04.060Z,0.90
2022-11-04T18:43:09.318Z,0.80
2022-11-04T18:48:12.686Z,0.90
2022-11-04T18:53:16.236Z,0.90
2022-11-04T18:58:20.604Z,0.90
2022-11-04T19:03:24.204Z,0.97
2022-11-04T19:08:28.392Z,1.03
2022-11-04T19:13:32.707Z,1.37
2022-11-04T19:18:35.987Z,1.47
2022-11-04T19:23:40.200Z,1.10
2022-11-04T19:28:48.603Z,1.20
2022-11-04T19:33:52.790Z,1.00
2022-11-04T19:38:56.767Z,1.10
2022-11-04T19:44:02.860Z,0.90
2022-11-04T19:49:06.852Z,1.10
2022-11-04T19:54:10.113Z,1.07
2022-11-04T19:59:15.625Z,1.50
2022-11-04T20:04:18.626Z,1.73
2022-11-04T20:09:22.370Z,1.37
2022-11-04T20:14:28.136Z,1.20
2022-11-04T20:19:31.106Z,1.17
2022-11-04T20:24:34.077Z,0.97
2022-11-04T20:29:39.018Z,1.27
2022-11-04T20:34:41.992Z,1.40
2022-11-04T20:39:45.506Z,1.27
2022-11-04T20:44:50.698Z,1.20
2022-11-04T20:49:53.721Z,0.83
2022-11-04T20:54:56.992Z,1.80
2022-11-04T21:00:01.389Z,1.10
2022-11-04T21:05:04.626Z,1.30
2022-11-04T21:10:08.436Z,1.27
2022-11-04T21:15:34.293Z,1.10
2022-11-04T21:20:39.645Z,1.10
2022-11-04T21:25:44.588Z,1.20
2022-11-04T21:30:51.044Z,1.83
2022-11-04T21:35:54.247Z,1.50
2022-11-04T21:41:02.091Z,1.20
2022-11-04T21:46:08.658Z,1.07
2022-11-04T21:51:14.201Z,1.33
2022-11-04T21:56:20.333Z,1.10
2022-11-04T22:01:27.047Z,1.17
2022-11-04T22:06:34.762Z,1.70
2022-11-04T22:11:39.588Z,1.27
2022-11-04T22:16:44.137Z,1.57
2022-11-04T22:21:48.005Z,1.10
2022-11-04T22:26:51.147Z,1.37
2022-11-04T22:31:55.477Z,1.13
2022-11-04T22:36:58.430Z,1.10
2022-11-04T22:42:01.437Z,1.20
2022-11-04T22:47:06.018Z,1.20
2022-11-04T22:52:09.393Z,1.20
2022-11-04T22:57:12.554Z,1.17
2022-11-04T23:02:17.057Z,1.30
2022-11-04T23:07:20.104Z,1.30
2022-11-04T23:12:40.416Z,1.20
2022-11-04T23:18:02.135Z,1.13
2022-11-04T23:23:22.493Z,1.33
2022-11-04T23:28:42.931Z,1.53
2022-11-04T23:34:04.937Z,1.40
2022-11-04T23:39:08.019Z,1.60
2022-11-04T23:44:31.016Z,1.30
2022-11-04T23:49:52.745Z,1.10
2022-11-04T23:55:13.058Z,1.10
